Time;durP1;ratioP1;P1;durP2;ratioP2;P2;SDS_P1;SDS_P2;PMS_P1;PMS_P2;Temp;Humidity;BMP_temperature;BMP_pressure;BME280_temperature;BME280_humidity;BME280_pressure;Samples;Min_cycle;Max_cycle;Signal;HPM_P1;HPM_P2
2021/12/23 00:00:54;;;;;;;7.53;4.43;;;;;;;18.90;36.35;101770.56;5072457;28;20952;-67
2021/12/23 00:03:19;;;;;;;6.50;4.38;;;;;;;18.75;36.42;101748.31;5071146;28;20029;-66
2021/12/23 00:05:45;;;;;;;6.13;4.07;;;;;;;18.83;36.61;101769.47;5076853;28;20044;-66
2021/12/23 00:08:10;;;;;;;6.78;4.28;;;;;;;18.67;36.87;101757.81;5075913;28;20039;-66
2021/12/23 00:10:36;;;;;;;5.65;4.10;;;;;;;18.69;36.50;101774.31;5074805;28;20394;-66
2021/12/23 00:13:01;;;;;;;5.20;4.13;;;;;;;18.66;36.75;101763.22;5074622;28;20047;-66
2021/12/23 00:18:17;;;;;;;6.00;4.57;;;;;;;18.64;36.75;101755.44;5078161;28;20036;-66
2021/12/23 00:23:28;;;;;;;5.95;3.97;;;;;;;18.49;36.93;101740.25;5079779;28;20044;-66
2021/12/23 00:26:03;;;;;;;5.68;4.60;;;;;;;18.50;37.10;101740.13;5081735;28;20076;-66
2021/12/23 00:28:30;;;;;;;5.78;4.20;;;;;;;18.36;36.90;101722.16;5080796;28;20040;-66
2021/12/23 00:30:56;;;;;;;6.07;4.20;;;;;;;18.38;37.14;101730.75;5079003;28;20024;-66
2021/12/23 00:33:23;;;;;;;5.25;4.05;;;;;;;18.25;37.16;101722.34;5079965;28;20122;-66
2021/12/23 00:35:49;;;;;;;7.50;4.53;;;;;;;18.22;37.23;101714.75;5074683;28;20040;-66
2021/12/23 00:38:24;;;;;;;6.50;4.60;;;;;;;18.14;37.34;101699.69;5077255;28;20454;-66
2021/12/23 00:40:52;;;;;;;7.35;4.63;;;;;;;18.16;37.66;101691.63;5077666;28;20032;-65
2021/12/23 00:43:18;;;;;;;5.93;4.20;;;;;;;18.09;37.42;101691.38;5076739;28;20047;-66
2021/12/23 00:45:43;;;;;;;5.65;4.05;;;;;;;18.10;37.16;101677.19;5082743;28;20122;-66
2021/12/23 00:48:09;;;;;;;6.07;4.50;;;;;;;18.10;37.44;101690.38;5080793;28;20115;-66
2021/12/23 00:50:35;;;;;;;5.90;4.15;;;;;;;18.05;37.64;101687.38;5074868;28;20055;-66
2021/12/23 00:53:05;;;;;;;6.30;4.75;;;;;;;17.99;37.76;101674.78;5075241;28;20040;-66
2021/12/23 00:55:30;;;;;;;5.80;4.57;;;;;;;17.97;37.74;101676.75;5076648;28;20481;-66
2021/12/23 00:57:56;;;;;;;5.55;4.47;;;;;;;17.85;37.86;101680.53;5080273;28;20047;-66
2021/12/23 01:00:22;;;;;;;6.90;4.47;;;;;;;17.90;37.77;101680.91;5074351;28;20047;-66
2021/12/23 01:02:48;;;;;;;5.60;4.30;;;;;;;17.87;37.89;101674.16;5046393;28;20513;-66
2021/12/23 01:05:17;;;;;;;6.18;4.80;;;;;;;17.88;37.95;101696.88;5072500;28;20076;-66
2021/12/23 01:07:43;;;;;;;6.53;4.18;;;;;;;17.81;37.99;101706.34;5077461;28;20040;-66
2021/12/23 01:10:10;;;;;;;6.07;4.78;;;;;;;17.79;38.01;101692.50;5078378;28;20145;-66
2021/12/23 01:12:49;;;;;;;7.32;4.47;;;;;;;17.74;38.06;101713.16;5075186;28;20112;-66
2021/12/23 01:15:39;;;;;;;5.80;4.50;;;;;;;17.73;38.17;101704.41;5074473;28;20809;-66
2021/12/23 01:18:12;;;;;;;6.00;4.45;;;;;;;17.72;38.03;101717.75;5079877;28;20024;-66
2021/12/23 01:20:50;;;;;;;6.28;4.40;;;;;;;17.68;38.12;101708.47;5074809;28;20032;-66
2021/12/23 01:23:17;;;;;;;5.78;4.50;;;;;;;17.64;38.18;101701.81;5078534;28;20039;-65
2021/12/23 01:25:43;;;;;;;7.90;5.25;;;;;;;17.45;37.99;101674.56;5075329;28;20677;-65
2021/12/23 01:28:08;;;;;;;6.13;4.45;;;;;;;17.53;38.33;101708.91;5072951;28;20055;-65
2021/12/23 01:30:39;;;;;;;5.68;4.60;;;;;;;17.52;38.19;101701.97;5072577;28;20032;-65
2021/12/23 01:33:07;;;;;;;7.38;4.93;;;;;;;17.57;38.21;101698.06;5077385;28;20027;-65
2021/12/23 01:35:34;;;;;;;6.35;4.38;;;;;;;17.52;38.25;101701.97;5074958;28;20409;-65
2021/12/23 01:38:00;;;;;;;7.03;4.32;;;;;;;17.36;38.27;101666.69;5076590;28;20048;-65
2021/12/23 01:40:27;;;;;;;6.18;4.70;;;;;;;17.48;38.33;101690.06;5077562;28;20047;-65
2021/12/23 01:42:53;;;;;;;5.85;4.40;;;;;;;17.37;38.43;101682.34;5074909;28;20039;-65
2021/12/23 01:45:24;;;;;;;6.18;5.07;;;;;;;17.35;38.43;101665.84;5079227;28;20035;-65
2021/12/23 01:47:50;;;;;;;5.28;4.47;;;;;;;17.40;38.53;101663.59;5059772;28;20541;-65
2021/12/23 01:50:19;;;;;;;5.55;4.50;;;;;;;17.42;38.36;101652.97;5076489;28;20088;-65
2021/12/23 01:52:45;;;;;;;9.13;5.50;;;;;;;17.37;38.50;101619.16;5078887;28;20438;-65
2021/12/23 01:55:11;;;;;;;6.10;4.75;;;;;;;17.30;38.53;101575.13;5070841;28;20036;-65
2021/12/23 01:57:39;;;;;;;6.45;5.18;;;;;;;17.36;38.53;101558.75;5077355;28;20123;-65
2021/12/23 02:00:11;;;;;;;6.15;4.55;;;;;;;17.32;38.44;101523.97;5076344;28;20036;-65
2021/12/23 02:02:41;;;;;;;6.18;4.80;;;;;;;17.31;38.44;101482.00;5058709;28;20062;-65
2021/12/23 02:05:07;;;;;;;7.18;5.15;;;;;;;17.25;38.59;101458.94;5076541;28;20028;-65
2021/12/23 02:07:33;;;;;;;7.47;5.50;;;;;;;17.21;38.68;101503.09;5078341;28;20106;-65
2021/12/23 02:09:59;;;;;;;7.10;4.85;;;;;;;17.19;38.70;101542.75;5076586;28;20166;-65
2021/12/23 02:12:25;;;;;;;6.15;4.70;;;;;;;17.19;38.69;101526.13;5062163;28;20047;-65
2021/12/23 02:14:51;;;;;;;5.97;4.68;;;;;;;17.11;38.95;101529.47;5078896;28;20931;-65
2021/12/23 02:17:17;;;;;;;6.90;5.10;;;;;;;17.12;38.81;101525.88;5078511;28;20143;-65
2021/12/23 02:19:42;;;;;;;6.60;4.72;;;;;;;17.08;38.83;101524.53;5075167;28;20478;-65
2021/12/23 02:22:08;;;;;;;7.53;5.07;;;;;;;17.12;38.78;101507.47;5075298;28;20047;-65
2021/12/23 02:24:33;;;;;;;5.78;4.65;;;;;;;17.07;38.89;101493.91;5076497;28;20055;-65
2021/12/23 02:26:59;;;;;;;6.90;5.10;;;;;;;17.07;38.79;101511.50;5073443;28;20128;-65
2021/12/23 02:29:24;;;;;;;7.75;5.03;;;;;;;17.07;39.05;101522.03;5077401;28;20039;-65
2021/12/23 02:31:52;;;;;;;6.43;4.75;;;;;;;17.05;38.91;101526.59;5079197;28;20478;-65
2021/12/23 02:34:19;;;;;;;7.45;5.22;;;;;;;17.03;38.92;101532.00;5069470;28;20463;-65
2021/12/23 02:36:53;;;;;;;6.68;4.80;;;;;;;16.96;39.01;101536.19;5074941;28;20060;-65
2021/12/23 02:39:20;;;;;;;7.75;5.20;;;;;;;16.97;38.96;101566.78;5074657;28;20103;-65
2021/12/23 02:41:46;;;;;;;8.35;5.88;;;;;;;16.98;39.05;101576.34;5078605;28;20485;-65
2021/12/23 02:44:12;;;;;;;5.85;4.55;;;;;;;16.90;39.15;101565.69;5073401;28;20089;-65
2021/12/23 02:46:38;;;;;;;6.32;5.22;;;;;;;16.85;39.08;101549.50;5075089;28;20062;-65
2021/12/23 02:49:04;;;;;;;6.28;4.70;;;;;;;16.89;39.05;101528.03;5078123;28;20182;-65
2021/12/23 02:51:29;;;;;;;8.40;5.30;;;;;;;16.84;39.05;101529.44;5076267;28;20031;-65
2021/12/23 02:53:55;;;;;;;6.95;5.30;;;;;;;16.85;39.18;101549.50;5075311;28;20036;-65
2021/12/23 02:56:21;;;;;;;8.23;5.38;;;;;;;16.87;39.20;101542.28;5058147;28;20059;-65
2021/12/23 02:58:46;;;;;;;6.32;5.00;;;;;;;16.88;39.02;101529.03;5074024;28;20040;-65
2021/12/23 03:01:14;;;;;;;7.10;5.10;;;;;;;16.82;39.22;101518.22;5070208;28;20044;-65
2021/12/23 03:03:40;;;;;;;7.18;5.05;;;;;;;16.87;38.97;101518.63;5053974;28;20447;-65
2021/12/23 03:06:06;;;;;;;6.60;4.90;;;;;;;16.84;39.04;101501.31;5073133;28;20975;-66
2021/12/23 03:08:44;;;;;;;7.90;5.43;;;;;;;16.78;39.20;101507.16;5077385;28;20122;-66
2021/12/23 03:11:13;;;;;;;6.40;5.03;;;;;;;16.77;39.13;101486.25;5075222;28;20040;-65
2021/12/23 03:13:39;;;;;;;6.60;4.85;;;;;;;16.77;39.13;101484.47;5072591;28;20028;-65
2021/12/23 03:16:05;;;;;;;7.35;5.18;;;;;;;16.70;39.25;101464.97;5056905;28;21447;-65
2021/12/23 03:18:31;;;;;;;6.78;4.70;;;;;;;16.56;39.13;101436.47;5073671;28;20040;-65
2021/12/23 03:20:58;;;;;;;7.20;5.22;;;;;;;16.75;39.13;101460.13;5072647;28;20097;-65
2021/12/23 03:23:24;;;;;;;8.35;5.05;;;;;;;16.72;39.31;101454.31;5077248;28;20411;-65
2021/12/23 03:25:50;;;;;;;5.45;4.68;;;;;;;16.67;39.29;101446.84;5073735;28;20047;-65
2021/12/23 03:28:16;;;;;;;5.72;4.68;;;;;;;16.66;39.08;101423.28;5072145;28;20032;-65
2021/12/23 03:30:42;;;;;;;7.90;5.57;;;;;;;16.68;39.20;101414.31;5071588;28;20036;-66
2021/12/23 03:33:07;;;;;;;6.95;5.03;;;;;;;16.63;39.26;101406.81;5073283;28;20104;-66
2021/12/23 03:35:33;;;;;;;6.93;5.40;;;;;;;16.63;39.24;101390.22;5072282;28;20032;-65
2021/12/23 03:37:59;;;;;;;5.43;4.70;;;;;;;16.63;39.30;101382.34;5075280;28;20097;-66
2021/12/23 03:40:25;;;;;;;6.43;4.90;;;;;;;16.58;39.30;101376.69;5075238;28;20031;-66
2021/12/23 03:42:51;;;;;;;5.90;4.50;;;;;;;16.57;39.25;101383.75;5069088;28;20368;-65
2021/12/23 03:45:17;;;;;;;6.50;4.88;;;;;;;16.62;39.16;101383.31;5075458;28;20027;-66
2021/12/23 03:47:45;;;;;;;8.23;5.38;;;;;;;16.58;39.29;101393.28;5073413;28;20033;-65
2021/12/23 03:50:10;;;;;;;6.57;4.95;;;;;;;16.58;39.31;101388.03;5073884;28;20028;-65
2021/12/23 03:52:36;;;;;;;7.20;4.88;;;;;;;16.58;39.37;101387.19;5072445;28;20078;-65
2021/12/23 03:55:03;;;;;;;6.80;5.03;;;;;;;16.65;39.12;101376.94;5074359;28;20031;-66
2021/12/23 03:57:29;;;;;;;7.72;5.15;;;;;;;16.58;39.06;101363.53;5081016;28;20040;-65
2021/12/23 03:59:54;;;;;;;6.72;5.10;;;;;;;16.56;39.31;101365.50;5080012;28;20046;-65
2021/12/23 04:02:20;;;;;;;6.85;5.15;;;;;;;16.65;39.09;101350.63;5076580;28;20056;-66
2021/12/23 04:04:45;;;;;;;5.95;4.78;;;;;;;16.84;38.67;101342.66;5063155;28;20135;-65
2021/12/23 04:07:11;;;;;;;7.90;5.32;;;;;;;16.86;38.63;101348.59;5081155;28;20446;-65
2021/12/23 04:09:36;;;;;;;7.32;4.85;;;;;;;16.91;38.48;101331.44;5073868;28;20047;-65
2021/12/23 04:12:02;;;;;;;6.30;4.88;;;;;;;17.08;38.20;101331.59;5058586;28;20129;-65
2021/12/23 04:14:28;;;;;;;8.20;5.22;;;;;;;17.15;38.16;101328.19;5064319;28;20047;-65
2021/12/23 04:16:53;;;;;;;7.18;5.07;;;;;;;17.21;38.02;101332.84;5079229;28;20043;-65
2021/12/23 04:19:19;;;;;;;6.30;4.70;;;;;;;17.27;37.88;101306.94;5082140;28;20047;-65
2021/12/23 04:21:45;;;;;;;6.95;4.90;;;;;;;17.49;37.93;101324.88;5079108;28;20090;-65
2021/12/23 04:24:10;;;;;;;6.38;4.63;;;;;;;17.64;37.86;101327.81;5080441;28;20421;-65
2021/12/23 04:26:38;;;;;;;6.57;4.68;;;;;;;17.64;37.45;101302.31;5075549;28;20043;-65
2021/12/23 04:29:05;;;;;;;6.47;4.82;;;;;;;17.96;37.38;101343.06;5060688;28;20048;-66
2021/12/23 04:31:31;;;;;;;6.05;4.50;;;;;;;18.05;37.30;101336.84;5078137;28;20028;-65
2021/12/23 04:33:57;;;;;;;8.20;5.13;;;;;;;18.11;37.01;101339.66;5072249;28;20337;-65
2021/12/23 04:36:27;;;;;;;6.43;4.45;;;;;;;18.18;37.31;101336.44;5072428;28;20032;-66
2021/12/23 04:38:53;;;;;;;6.88;4.82;;;;;;;18.25;37.13;101340.09;5074665;28;20508;-66
2021/12/23 04:41:19;;;;;;;7.88;4.75;;;;;;;18.35;37.00;101336.38;5073065;28;20036;-65
2021/12/23 04:43:45;;;;;;;6.07;4.32;;;;;;;18.38;37.05;101330.78;5073943;28;20067;-65
2021/12/23 04:46:11;;;;;;;5.45;4.45;;;;;;;18.48;36.82;101335.09;5083462;28;20036;-66
2021/12/23 04:48:36;;;;;;;6.47;4.55;;;;;;;18.53;37.06;101330.19;5078446;28;20036;-65
2021/12/23 04:51:03;;;;;;;5.65;4.25;;;;;;;18.58;36.90;101331.34;5081065;28;20044;-65
2021/12/23 04:53:29;;;;;;;5.40;4.55;;;;;;;18.63;36.90;101322.97;5081556;28;20375;-65
2021/12/23 04:55:55;;;;;;;6.35;4.18;;;;;;;18.67;36.86;101325.16;5060415;28;20087;-65
2021/12/23 04:58:21;;;;;;;6.10;4.72;;;;;;;18.74;36.61;101317.41;5077753;28;20082;-65
2021/12/23 05:00:48;;;;;;;6.18;5.07;;;;;;;18.78;36.59;101336.38;5077754;28;20035;-66
2021/12/23 05:03:20;;;;;;;6.82;4.50;;;;;;;18.83;36.63;101334.09;5074820;28;20119;-66
2021/12/23 05:05:46;;;;;;;6.22;4.78;;;;;;;18.87;36.65;101327.53;5071624;28;20275;-65
2021/12/23 05:08:12;;;;;;;5.78;4.13;;;;;;;18.94;36.49;101324.06;5074837;28;20036;-65
2021/12/23 05:10:38;;;;;;;6.63;4.30;;;;;;;19.08;36.47;101321.78;5077899;28;20040;-65
2021/12/23 05:13:04;;;;;;;6.25;4.10;;;;;;;19.04;36.37;101313.38;5074934;28;20028;-65
2021/12/23 05:15:30;;;;;;;6.22;4.85;;;;;;;19.12;36.48;101317.81;5074680;28;20658;-65
2021/12/23 05:17:56;;;;;;;5.85;4.20;;;;;;;19.12;36.37;101312.56;5080303;28;20070;-65
2021/12/23 05:20:22;;;;;;;7.25;4.65;;;;;;;19.10;36.46;101311.88;5075740;28;20044;-65
2021/12/23 05:22:48;;;;;;;8.20;4.68;;;;;;;19.15;36.43;101302.47;5076166;28;20172;-65
2021/12/23 05:25:15;;;;;;;6.88;4.72;;;;;;;19.17;36.37;101300.50;5068987;28;20048;-65
2021/12/23 05:27:40;;;;;;;6.85;4.78;;;;;;;19.12;36.25;101286.97;5056717;28;20561;-65
2021/12/23 05:30:10;;;;;;;6.15;4.50;;;;;;;19.06;36.42;101285.00;5058244;28;20263;-66
2021/12/23 05:32:36;;;;;;;6.25;4.30;;;;;;;19.12;36.49;101300.19;5054667;28;20503;-65
2021/12/23 05:35:02;;;;;;;6.55;4.63;;;;;;;19.15;36.34;101294.56;5060231;28;20033;-66
2021/12/23 05:37:28;;;;;;;5.97;4.38;;;;;;;19.22;36.27;101311.41;5056004;28;20040;-65
2021/12/23 05:39:54;;;;;;;6.10;4.45;;;;;;;19.20;36.29;101291.44;5054815;28;20025;-66
2021/12/23 05:42:19;;;;;;;5.53;4.50;;;;;;;19.18;36.20;101281.03;5054550;28;20410;-66
2021/12/23 05:44:45;;;;;;;6.63;4.50;;;;;;;19.29;36.21;101287.81;5057169;28;20048;-65
2021/12/23 05:47:10;;;;;;;6.68;4.70;;;;;;;19.27;36.29;101263.38;5060093;28;20048;-65
2021/12/23 05:49:36;;;;;;;6.20;4.40;;;;;;;19.28;36.33;101281.72;5058318;28;20121;-65
2021/12/23 05:52:02;;;;;;;6.22;4.20;;;;;;;19.29;36.06;101274.59;5052582;28;20032;-66
2021/12/23 05:54:27;;;;;;;6.50;4.97;;;;;;;19.18;36.20;101259.09;5055274;28;20322;-65
2021/12/23 05:56:53;;;;;;;5.82;4.38;;;;;;;19.36;36.27;101277.41;5054359;28;20036;-65
2021/12/23 05:59:18;;;;;;;5.15;4.10;;;;;;;19.35;36.19;101281.84;5053814;28;20036;-66
2021/12/23 06:01:44;;;;;;;6.60;4.50;;;;;;;19.37;36.01;101268.50;5050663;28;20047;-66
2021/12/23 06:04:09;;;;;;;5.70;4.30;;;;;;;19.49;35.96;101269.81;5054067;28;20047;-65
2021/12/23 06:06:35;;;;;;;6.70;4.40;;;;;;;19.44;35.99;101259.75;5049918;28;20044;-65
2021/12/23 06:09:01;;;;;;;6.35;4.40;;;;;;;19.46;35.88;101241.91;5052674;28;20028;-65
2021/12/23 06:11:26;;;;;;;5.35;4.45;;;;;;;19.16;35.84;101179.22;5049900;28;20451;-65
2021/12/23 06:13:52;;;;;;;7.07;4.80;;;;;;;19.47;35.90;101227.72;5053086;28;20052;-66
2021/12/23 06:16:17;;;;;;;5.75;4.47;;;;;;;19.52;35.77;101219.28;5050255;28;20063;-65
2021/12/23 06:18:43;;;;;;;7.47;4.57;;;;;;;19.57;35.88;101203.81;5049707;28;20106;-65
2021/12/23 06:21:09;;;;;;;6.63;4.75;;;;;;;19.58;35.65;101203.63;5047992;28;20041;-66
2021/12/23 06:23:34;;;;;;;5.72;4.57;;;;;;;19.60;35.88;101204.28;5052505;28;20133;-65
2021/12/23 06:26:00;;;;;;;6.55;4.68;;;;;;;19.55;35.86;101179.34;5068211;28;20074;-65
2021/12/23 06:28:26;;;;;;;6.47;4.50;;;;;;;19.51;35.83;101170.91;5070050;28;20040;-65
2021/12/23 06:30:51;;;;;;;5.72;4.35;;;;;;;19.53;35.90;101158.34;5079495;28;20564;-65
2021/12/23 06:33:17;;;;;;;6.45;4.03;;;;;;;19.53;35.84;101152.25;5080206;28;20445;-66
2021/12/23 06:35:43;;;;;;;6.53;4.28;;;;;;;19.50;36.03;101150.78;5075878;28;20418;-66
2021/12/23 06:38:11;;;;;;;6.53;4.35;;;;;;;19.55;35.81;101151.13;5074588;28;20040;-65
2021/12/23 06:40:38;;;;;;;5.07;4.45;;;;;;;19.52;35.86;101132.94;5071525;28;20041;-65
2021/12/23 06:43:04;;;;;;;5.47;4.32;;;;;;;19.51;35.69;101086.41;5073492;28;20478;-65
2021/12/23 06:45:30;;;;;;;4.63;3.95;;;;;;;19.47;36.15;101102.75;5073876;28;20036;-65
2021/12/23 06:47:55;;;;;;;6.90;4.50;;;;;;;19.59;35.74;101117.28;5070086;28;20044;-66
2021/12/23 06:50:22;;;;;;;5.80;4.63;;;;;;;19.59;35.72;101120.75;5073352;28;20123;-66
2021/12/23 06:52:48;;;;;;;6.78;4.50;;;;;;;19.55;35.85;101114.13;5076505;28;20137;-66
2021/12/23 06:55:15;;;;;;;6.20;4.25;;;;;;;19.52;35.79;101097.78;5072889;28;20356;-65
2021/12/23 06:57:42;;;;;;;5.20;3.90;;;;;;;19.57;35.67;101106.06;5059533;28;20028;-65
2021/12/23 07:00:14;;;;;;;5.30;4.07;;;;;;;19.51;35.78;101094.31;5076932;28;20468;-65
2021/12/23 07:02:40;;;;;;;5.80;4.00;;;;;;;19.47;35.87;101081.63;5078739;28;20228;-65
2021/12/23 07:05:07;;;;;;;5.50;4.05;;;;;;;19.50;35.73;101089.22;5054659;28;20040;-66
2021/12/23 07:07:41;;;;;;;6.45;4.07;;;;;;;19.49;35.73;101077.81;5074251;28;20122;-65
2021/12/23 07:10:09;;;;;;;6.07;4.32;;;;;;;19.43;35.63;101082.97;5071287;28;20055;-65
2021/12/23 07:12:34;;;;;;;4.70;3.83;;;;;;;19.44;35.73;101090.72;5075503;28;20040;-65
2021/12/23 07:15:00;;;;;;;8.95;4.63;;;;;;;19.49;35.80;101092.84;5071624;28;20488;-66
2021/12/23 07:17:26;;;;;;;6.68;4.90;;;;;;;19.49;36.16;101088.38;5079801;28;20043;-67
2021/12/23 07:19:51;;;;;;;5.90;4.43;;;;;;;19.52;36.14;101084.56;5080659;28;20035;-66
2021/12/23 07:22:17;;;;;;;6.00;4.30;;;;;;;19.55;36.09;101074.50;5076624;28;20258;-67
2021/12/23 07:24:43;;;;;;;5.75;4.45;;;;;;;19.62;35.87;101077.31;5080206;28;20421;-67
2021/12/23 07:27:09;;;;;;;6.82;4.57;;;;;;;19.69;35.93;101080.91;5077645;28;20055;-65
2021/12/23 07:29:35;;;;;;;6.40;4.53;;;;;;;19.71;35.75;101075.44;5080691;28;20036;-65
2021/12/23 07:32:03;;;;;;;5.95;4.35;;;;;;;19.73;35.58;101073.44;5072419;28;20516;-64
2021/12/23 07:34:30;;;;;;;6.45;4.68;;;;;;;19.75;35.58;101066.16;5071789;28;20083;-65
2021/12/23 07:36:55;;;;;;;6.32;4.70;;;;;;;19.74;35.42;101070.63;5072287;28;20478;-65
2021/12/23 07:39:21;;;;;;;6.40;4.45;;;;;;;19.76;35.49;101071.31;5082580;28;20047;-65
2021/12/23 07:41:47;;;;;;;7.22;4.60;;;;;;;19.85;35.29;101075.53;5075561;28;20051;-65
2021/12/23 07:44:20;;;;;;;7.82;4.65;;;;;;;19.87;35.37;101088.56;5067723;28;20048;-65
2021/12/23 07:46:47;;;;;;;7.57;5.15;;;;;;;19.85;35.29;101074.72;5072879;28;20074;-64
2021/12/23 07:49:13;;;;;;;7.78;4.97;;;;;;;19.88;35.11;101075.19;5076584;28;20107;-65
2021/12/23 07:51:39;;;;;;;5.95;4.80;;;;;;;19.92;35.16;101078.28;5077417;28;20043;-65
2021/12/23 07:54:05;;;;;;;7.90;5.20;;;;;;;19.87;35.14;101065.59;5076772;28;20051;-64
2021/12/23 07:56:31;;;;;;;7.05;5.53;;;;;;;19.87;35.03;101072.72;5075904;28;20036;-65
2021/12/23 07:58:57;;;;;;;7.07;4.93;;;;;;;19.77;35.26;101059.75;5064916;28;20089;-65
2021/12/23 08:01:22;;;;;;;6.70;4.63;;;;;;;19.80;35.05;101069.13;5075447;28;20044;-65
2021/12/23 08:03:48;;;;;;;9.05;5.07;;;;;;;19.50;35.17;101044.31;5084023;28;20040;-65
2021/12/23 08:06:14;;;;;;;6.63;4.53;;;;;;;19.67;35.25;101072.31;5082240;28;20420;-64
2021/12/23 08:08:40;;;;;;;6.18;4.53;;;;;;;19.65;35.17;101074.31;5080278;28;20067;-64
2021/12/23 08:11:06;;;;;;;8.13;5.22;;;;;;;19.63;34.99;101072.84;5076473;28;20482;-65
2021/12/23 08:13:32;;;;;;;7.10;4.97;;;;;;;19.31;34.90;101012.03;5070165;28;20069;-65
2021/12/23 08:15:58;;;;;;;8.50;5.45;;;;;;;19.66;35.03;101075.97;5078682;28;20032;-65
2021/12/23 08:18:24;;;;;;;6.72;4.35;;;;;;;19.71;34.93;101072.78;5070744;28;20132;-64
2021/12/23 08:20:50;;;;;;;6.68;5.03;;;;;;;19.46;35.27;101046.47;5055258;28;20036;-65
2021/12/23 08:23:16;;;;;;;7.15;4.80;;;;;;;19.70;35.20;101074.63;5070290;28;20131;-64
2021/12/23 08:25:41;;;;;;;5.95;4.47;;;;;;;19.73;35.16;101084.00;5075707;28;20048;-64
2021/12/23 08:28:07;;;;;;;6.00;4.53;;;;;;;19.66;35.17;101061.94;5075220;28;20707;-65
2021/12/23 08:30:34;;;;;;;6.28;4.50;;;;;;;19.75;35.07;101077.59;5067964;28;20138;-64
2021/12/23 08:33:00;;;;;;;8.18;5.03;;;;;;;19.76;35.24;101071.31;5076748;28;20046;-64
2021/12/23 08:35:25;;;;;;;6.97;5.00;;;;;;;19.78;35.24;101058.75;5075420;28;20215;-65
2021/12/23 08:37:51;;;;;;;5.15;4.57;;;;;;;19.84;35.23;101062.50;5074639;28;20060;-64
2021/12/23 08:40:19;;;;;;;6.82;4.55;;;;;;;19.86;35.10;101055.22;5083535;28;20040;-65
2021/12/23 08:42:45;;;;;;;5.75;4.70;;;;;;;19.85;35.20;101051.75;5080080;28;20031;-64
2021/12/23 08:45:11;;;;;;;6.28;4.68;;;;;;;19.90;35.18;101054.69;5075006;28;20418;-64
2021/12/23 08:47:37;;;;;;;5.88;4.53;;;;;;;19.87;35.28;101046.28;5078228;28;20061;-64
2021/12/23 08:50:07;;;;;;;7.07;4.63;;;;;;;19.87;35.39;101035.72;5078829;28;20058;-64
2021/12/23 08:52:34;;;;;;;5.88;4.40;;;;;;;19.83;35.46;101034.44;5077064;28;20543;-64
2021/12/23 08:55:00;;;;;;;5.97;4.40;;;;;;;19.86;35.07;101040.19;5078418;28;20123;-65
2021/12/23 08:57:25;;;;;;;5.70;4.50;;;;;;;19.82;35.44;101036.25;5077609;28;20128;-64
2021/12/23 08:59:51;;;;;;;7.75;5.00;;;;;;;19.88;35.35;101024.16;5077545;28;20050;-65
2021/12/23 09:02:17;;;;;;;6.00;4.43;;;;;;;19.81;35.57;101018.75;5079716;28;20681;-64
2021/12/23 09:04:42;;;;;;;6.10;4.68;;;;;;;19.84;35.42;101025.50;5079081;28;20251;-64
2021/12/23 09:07:11;;;;;;;7.05;4.63;;;;;;;19.82;35.42;101012.47;5078068;28;20484;-64
2021/12/23 09:09:37;;;;;;;7.40;4.38;;;;;;;19.77;35.71;101012.16;5084006;28;20388;-64
2021/12/23 09:12:05;;;;;;;6.03;4.50;;;;;;;19.70;35.67;101007.75;5072065;28;20042;-64
2021/12/23 09:14:32;;;;;;;8.32;4.78;;;;;;;19.69;35.70;101006.09;5071720;28;20060;-65
2021/12/23 09:16:57;;;;;;;9.88;4.38;;;;;;;19.36;35.81;100947.31;5081286;28;20044;-65
2021/12/23 09:19:23;;;;;;;6.38;4.75;;;;;;;19.63;35.76;100996.25;5074408;28;20041;-64
2021/12/23 09:21:49;;;;;;;7.75;5.10;;;;;;;19.62;35.87;100987.50;5079746;28;20051;-65
2021/12/23 09:24:14;;;;;;;7.05;4.40;;;;;;;19.55;35.85;100994.44;5062003;28;20063;-65
2021/12/23 09:26:53;;;;;;;6.38;4.70;;;;;;;19.62;35.78;100995.41;5079912;28;20052;-65
2021/12/23 09:32:41;;;;;;;8.02;4.65;;;;;;;19.63;35.87;100986.50;5076104;28;20101;-65
2021/12/23 09:34:53;;;;;;;6.05;4.43;;;;;;;19.79;35.80;100999.59;5068870;28;20044;-65
2021/12/23 09:37:19;;;;;;;5.35;4.10;;;;;;;19.85;35.60;100996.25;5077263;28;20040;-64
2021/12/23 09:39:45;;;;;;;5.90;4.15;;;;;;;19.91;35.52;100982.31;5069827;28;20449;-64
2021/12/23 09:42:13;;;;;;;5.82;4.22;;;;;;;19.88;35.34;100969.47;5083179;28;20028;-64
2021/12/23 09:44:40;;;;;;;5.45;4.57;;;;;;;20.02;35.52;100991.66;5079062;28;20525;-64
2021/12/23 09:47:06;;;;;;;7.63;4.72;;;;;;;20.01;35.32;100986.56;5068323;28;20044;-64
2021/12/23 09:49:32;;;;;;;8.07;4.60;;;;;;;20.03;35.46;100981.91;5081679;28;20101;-64
2021/12/23 09:52:03;;;;;;;7.57;4.80;;;;;;;19.98;35.48;100971.06;5073891;28;20498;-64
2021/12/23 09:54:30;;;;;;;5.57;4.50;;;;;;;20.01;35.65;100973.34;5069912;28;20048;-65
2021/12/23 09:56:56;;;;;;;4.82;4.20;;;;;;;19.97;35.68;100966.78;5072989;28;20141;-64
2021/12/23 09:59:27;;;;;;;7.18;4.60;;;;;;;19.97;35.63;100966.78;5078391;28;20506;-64
2021/12/23 10:01:53;;;;;;;7.05;4.78;;;;;;;19.92;35.63;100960.19;5079977;28;20044;-64
2021/12/23 10:04:19;;;;;;;6.57;4.38;;;;;;;19.86;35.77;100965.34;5081601;28;20036;-64
2021/12/23 10:06:44;;;;;;;6.13;4.10;;;;;;;19.84;35.67;100952.31;5058463;28;20043;-64
2021/12/23 10:09:11;;;;;;;5.63;4.30;;;;;;;19.80;35.87;100950.22;5066173;28;20035;-64
2021/12/23 10:31:43;;;;;;;6.95;4.82;;;;;;;19.80;35.89;100916.69;5077246;28;20108;-64
2021/12/23 10:39:52;;;;;;;6.97;4.70;;;;;;;19.79;35.75;100903.66;5077490;28;20040;-64
2021/12/23 10:42:23;;;;;;;7.00;5.13;;;;;;;19.70;35.83;100878.28;5075699;28;20093;-65
2021/12/23 10:44:55;;;;;;;7.40;5.05;;;;;;;19.75;35.90;100895.28;5078924;28;20397;-64
2021/12/23 10:47:38;;;;;;;6.22;4.72;;;;;;;19.65;35.79;100870.06;5077258;28;20039;-64
2021/12/23 10:50:39;;;;;;;7.40;4.70;;;;;;;19.73;35.82;100867.34;5072438;28;20814;-64
2021/12/23 10:59:23;;;;;;;6.88;5.25;;;;;;;19.67;35.89;100850.41;5081449;28;20563;-64
2021/12/23 11:02:22;;;;;;;6.72;4.95;;;;;;;19.67;35.93;100860.97;5074945;28;20048;-64
2021/12/23 11:05:13;;;;;;;7.07;5.45;;;;;;;19.64;35.79;100849.94;5078845;28;20028;-65
2021/12/23 11:07:46;;;;;;;6.18;5.20;;;;;;;19.60;35.88;100850.31;5080511;28;20042;-65
2021/12/23 11:10:20;;;;;;;7.53;5.22;;;;;;;19.51;35.94;100824.91;5072848;28;20036;-64
2021/12/23 11:35:47;;;;;;;7.30;5.45;;;;;;;19.94;35.62;100793.53;5076324;28;20036;-64
2021/12/23 11:37:42;;;;;;;6.03;4.95;;;;;;;19.76;35.87;100769.25;5076480;28;20570;-64
2021/12/23 11:42:59;;;;;;;7.35;5.25;;;;;;;19.86;35.85;100773.28;5082270;28;20044;-71
2021/12/23 11:45:20;;;;;;;6.07;4.95;;;;;;;19.80;36.02;100759.97;5063667;28;20043;-70
2021/12/23 11:47:46;;;;;;;7.18;5.10;;;;;;;19.80;36.13;100767.91;5083138;28;20405;-71
2021/12/23 11:50:19;;;;;;;7.38;5.13;;;;;;;19.77;36.28;100769.09;5078509;28;20054;-70
2021/12/23 11:52:45;;;;;;;5.85;5.00;;;;;;;19.72;36.30;100766.13;5075235;28;20069;-71
2021/12/23 11:55:11;;;;;;;6.53;4.82;;;;;;;19.73;36.27;100757.22;5076572;28;20036;-70
2021/12/23 11:57:39;;;;;;;6.07;5.20;;;;;;;19.80;36.15;100758.16;5077463;28;20086;-70
2021/12/23 12:02:40;;;;;;;7.70;4.75;;;;;;;19.91;36.08;100760.31;5065852;28;20129;-71
2021/12/23 12:05:14;;;;;;;7.28;4.82;;;;;;;19.94;36.13;100756.53;5073232;28;20501;-71
2021/12/23 12:07:43;;;;;;;7.05;5.28;;;;;;;19.94;36.23;100748.59;5080443;28;20036;-71
2021/12/23 12:10:21;;;;;;;6.90;5.03;;;;;;;19.92;36.29;100747.94;5080331;28;20068;-71
2021/12/23 12:13:03;;;;;;;6.70;5.00;;;;;;;19.97;36.28;100747.41;5071111;28;20089;-70
2021/12/23 12:15:47;;;;;;;7.82;5.60;;;;;;;19.98;36.36;100752.50;5084457;28;20040;-71
2021/12/23 12:18:19;;;;;;;8.73;5.78;;;;;;;19.99;36.19;100746.22;5072724;28;20051;-71
2021/12/23 12:20:51;;;;;;;9.50;6.47;;;;;;;19.86;36.23;100728.34;5083471;28;20058;-71
2021/12/23 12:23:44;;;;;;;12.40;7.28;;;;;;;19.88;36.19;100736.91;5073095;28;20046;-71
2021/12/23 12:26:23;;;;;;;8.48;6.03;;;;;;;19.83;36.16;100733.19;5079863;28;20040;-71
2021/12/23 12:28:49;;;;;;;9.95;6.72;;;;;;;19.82;35.63;100719.16;5085540;28;20507;-72
2021/12/23 12:31:18;;;;;;;11.65;7.57;;;;;;;19.83;35.74;100726.06;5070671;28;20052;-72
2021/12/23 12:33:52;;;;;;;11.00;7.50;;;;;;;19.78;35.59;100735.56;5075983;28;20378;-72